Time;durP1;ratioP1;P1;durP2;ratioP2;P2;SDS_P1;SDS_P2;PMS_P1;PMS_P2;Temp;Humidity;BMP_temperature;BMP_pressure;BME280_temperature;BME280_humidity;BME280_pressure;Samples;Min_cycle;Max_cycle;Signal;HPM_P1;HPM_P2
2023/09/20 00:00:24;;;;;;;;;;;;;;;21.60;49.31;99977.00;4986095;28;6958;-74
2023/09/20 00:02:50;;;;;;;;;;;;;;;21.59;49.58;99980.50;4986614;28;11677;-73
2023/09/20 00:05:18;;;;;;;;;;;;;;;21.58;49.75;99981.38;4987273;28;6787;-73
2023/09/20 00:07:43;;;;;;;;;;;;;;;21.56;50.17;99976.16;4987190;28;6811;-74
2023/09/20 00:10:12;;;;;;;;;;;;;;;21.56;49.95;99975.31;4964505;28;6996;-73
2023/09/20 00:12:40;;;;;;;;;;;;;;;21.55;49.66;99976.19;4985334;28;6812;-74
2023/09/20 00:15:10;;;;;;;;;;;;;;;21.57;49.68;99977.03;4987443;28;8344;-74
2023/09/20 00:17:36;;;;;;;;;;;;;;;21.56;50.01;99980.53;4997806;28;6969;-74
2023/09/20 00:20:06;;;;;;;;;;;;;;;21.58;49.74;99978.75;4984504;28;7676;-74
2023/09/20 00:22:34;;;;;;;;;;;;;;;21.57;49.83;99984.84;4985330;28;7014;-74
2023/09/20 00:25:00;;;;;;;;;;;;;;;21.58;50.03;99986.59;4968187;28;6846;-73
2023/09/20 00:27:25;;;;;;;;;;;;;;;21.58;49.96;99973.53;4963985;28;7058;-74
2023/09/20 00:29:51;;;;;;;;;;;;;;;21.57;49.99;99983.09;4984470;28;6970;-74
2023/09/20 00:32:17;;;;;;;;;;;;;;;21.58;50.03;99979.63;4967971;28;7003;-74
2023/09/20 00:34:42;;;;;;;;;;;;;;;21.57;50.00;99980.50;4969524;28;7063;-74
2023/09/20 00:37:08;;;;;;;;;;;;;;;21.58;49.96;99973.53;4985744;28;7475;-73
2023/09/20 00:39:33;;;;;;;;;;;;;;;21.57;50.36;99974.44;4986304;28;6942;-74
2023/09/20 00:41:59;;;;;;;;;;;;;;;21.57;50.42;99974.44;4969439;28;6987;-74
2023/09/20 00:44:25;;;;;;;;;;;;;;;21.56;50.25;99975.31;4986352;28;6795;-74
2023/09/20 00:46:53;;;;;;;;;;;;;;;21.56;49.93;99975.31;4983790;28;6812;-74
2023/09/20 00:49:20;;;;;;;;;;;;;;;21.56;50.37;99981.38;4985155;28;7289;-73
2023/09/20 00:51:47;;;;;;;;;;;;;;;21.56;50.42;99970.94;4967228;28;7166;-74
2023/09/20 00:54:15;;;;;;;;;;;;;;;21.57;50.12;99971.81;4984860;28;7006;-74
2023/09/20 00:56:41;;;;;;;;;;;;;;;21.58;50.11;99969.19;4985585;28;6807;-73
2023/09/20 00:59:07;;;;;;;;;;;;;;;21.60;50.47;99972.69;4983111;28;7178;-73
2023/09/20 01:01:34;;;;;;;;;;;;;;;21.61;50.18;99973.53;4983564;28;7014;-74
2023/09/20 01:04:02;;;;;;;;;;;;;;;21.60;50.32;99966.59;4984451;28;6808;-73
2023/09/20 01:06:27;;;;;;;;;;;;;;;21.60;50.69;99961.38;4984118;28;7001;-74
2023/09/20 01:08:54;;;;;;;;;;;;;;;21.61;50.52;99961.38;5001915;28;6982;-73
2023/09/20 01:11:20;;;;;;;;;;;;;;;21.63;50.62;99963.94;4985489;28;6955;-73
2023/09/20 01:13:46;;;;;;;;;;;;;;;21.64;50.74;99958.75;4985040;28;7266;-73
2023/09/20 01:16:16;;;;;;;;;;;;;;;21.64;50.67;99956.13;4981768;28;7226;-73
2023/09/20 01:18:44;;;;;;;;;;;;;;;21.65;50.43;99957.88;4965676;28;7011;-73
2023/09/20 01:21:11;;;;;;;;;;;;;;;21.66;50.40;99958.75;4982243;28;7250;-73
2023/09/20 01:23:38;;;;;;;;;;;;;;;21.67;50.39;99963.09;4969224;28;7045;-73
2023/09/20 01:26:04;;;;;;;;;;;;;;;21.64;50.38;99956.13;4984406;28;6811;-74
2023/09/20 01:28:29;;;;;;;;;;;;;;;21.65;50.53;99954.41;5000593;28;6800;-74
2023/09/20 01:30:55;;;;;;;;;;;;;;;21.66;50.35;99956.13;4962393;28;6968;-74
2023/09/20 01:33:21;;;;;;;;;;;;;;;21.66;50.15;99961.34;4982827;28;6807;-74
2023/09/20 01:35:47;;;;;;;;;;;;;;;21.66;50.59;99963.97;4984216;28;7195;-74
2023/09/20 01:38:12;;;;;;;;;;;;;;;21.65;50.63;99955.25;4981189;28;6807;-74
2023/09/20 01:40:39;;;;;;;;;;;;;;;21.65;50.80;99954.41;4984280;28;7156;-74
2023/09/20 01:43:08;;;;;;;;;;;;;;;21.67;50.74;99956.97;4980948;28;6812;-74
2023/09/20 01:45:35;;;;;;;;;;;;;;;21.67;50.50;99956.97;4982817;28;7129;-74
2023/09/20 01:48:06;;;;;;;;;;;;;;;21.65;50.79;99964.84;4984142;28;6808;-74
2023/09/20 01:50:32;;;;;;;;;;;;;;;21.65;50.64;99955.25;4978449;28;6808;-74
2023/09/20 01:52:59;;;;;;;;;;;;;;;21.63;50.84;99945.69;4979282;28;7004;-74
2023/09/20 01:55:27;;;;;;;;;;;;;;;21.62;50.86;99944.84;4974881;28;7010;-74
2023/09/20 01:57:59;;;;;;;;;;;;;;;21.62;50.76;99943.97;4983831;28;6816;-74
2023/09/20 02:00:36;;;;;;;;;;;;;;;21.61;50.94;99942.25;4982665;28;6951;-74
2023/09/20 02:03:13;;;;;;;;;;;;;;;21.57;51.10;99938.78;4982699;28;7060;-74
2023/09/20 02:05:40;;;;;;;;;;;;;;;21.57;51.13;99944.00;4983609;28;7161;-74
2023/09/20 02:08:07;;;;;;;;;;;;;;;21.57;51.03;99937.94;4983721;28;7141;-74
2023/09/20 02:10:39;;;;;;;;;;;;;;;21.55;50.94;99945.75;4967878;28;7269;-74
2023/09/20 02:13:05;;;;;;;;;;;;;;;21.53;51.19;99944.00;4982690;28;6824;-74
2023/09/20 02:15:36;;;;;;;;;;;;;;;21.49;51.13;99933.59;4978704;28;6994;-74
2023/09/20 02:18:05;;;;;;;;;;;;;;;21.48;51.07;99938.81;4977445;28;7487;-74
2023/09/20 02:20:36;;;;;;;;;;;;;;;21.48;51.38;99941.41;4977838;28;6820;-74
2023/09/20 02:23:04;;;;;;;;;;;;;;;21.47;51.13;99940.56;4981566;28;7147;-74
2023/09/20 02:25:30;;;;;;;;;;;;;;;21.44;51.25;99938.00;4983426;28;6859;-74
2023/09/20 02:27:57;;;;;;;;;;;;;;;21.44;51.34;99935.38;4967561;28;7041;-74
2023/09/20 02:30:24;;;;;;;;;;;;;;;21.44;51.44;99926.69;4980467;28;6808;-74
2023/09/20 02:32:57;;;;;;;;;;;;;;;21.44;51.76;99940.59;4957730;28;7130;-74
2023/09/20 02:35:27;;;;;;;;;;;;;;;21.45;51.64;99931.03;4968008;28;6983;-74
2023/09/20 02:37:55;;;;;;;;;;;;;;;21.46;51.60;99927.53;4968149;28;7002;-74
2023/09/20 02:40:23;;;;;;;;;;;;;;;21.46;51.64;99924.94;4962414;28;7467;-74
2023/09/20 02:42:54;;;;;;;;;;;;;;;21.45;51.68;99926.69;4984078;28;7004;-74
2023/09/20 02:45:23;;;;;;;;;;;;;;;21.44;51.72;99924.97;4981477;28;7258;-74
2023/09/20 02:47:49;;;;;;;;;;;;;;;21.43;51.78;99927.56;4984096;28;7051;-74
2023/09/20 02:50:16;;;;;;;;;;;;;;;21.38;51.99;99924.97;4966532;28;7280;-74
2023/09/20 02:52:45;;;;;;;;;;;;;;;21.35;51.76;99923.25;5001115;28;6812;-74
2023/09/20 02:55:12;;;;;;;;;;;;;;;21.31;52.26;99918.03;4982957;28;7095;-74
2023/09/20 02:57:38;;;;;;;;;;;;;;;21.29;52.43;99919.78;4988919;28;6816;-75
2023/09/20 03:00:15;;;;;;;;;;;;;;;21.24;52.00;99922.41;4994157;28;6791;-75
2023/09/20 03:02:45;;;;;;;;;;;;;;;21.21;52.40;99920.69;4998517;28;11895;-76
2023/09/20 03:05:15;;;;;;;;;;;;;;;21.21;52.39;99917.22;4986172;28;6995;-76
2023/09/20 03:07:45;;;;;;;;;;;;;;;21.20;52.55;99920.72;4971598;28;7070;-76
2023/09/20 03:10:13;;;;;;;;;;;;;;;21.18;52.47;99915.50;4981461;28;7203;-76
2023/09/20 03:12:43;;;;;;;;;;;;;;;21.17;52.60;99905.94;5004009;28;7524;-76
2023/09/20 03:15:17;;;;;;;;;;;;;;;21.16;52.60;99899.00;4985718;28;7296;-76
2023/09/20 03:17:47;;;;;;;;;;;;;;;21.16;52.79;99905.94;4979929;28;6875;-75
2023/09/20 03:20:23;;;;;;;;;;;;;;;21.16;52.80;99892.91;4985687;28;7298;-75
2023/09/20 03:22:54;;;;;;;;;;;;;;;21.15;52.80;99884.25;4984920;28;6987;-75
2023/09/20 03:25:22;;;;;;;;;;;;;;;21.15;53.05;99881.63;4988467;28;7210;-76
2023/09/20 03:27:48;;;;;;;;;;;;;;;21.16;53.09;99883.38;4985821;28;6880;-75
2023/09/20 03:30:20;;;;;;;;;;;;;;;21.13;53.12;99879.91;4983856;28;7070;-75
2023/09/20 03:32:49;;;;;;;;;;;;;;;21.10;53.36;99878.19;4985649;28;6816;-75
2023/09/20 03:35:16;;;;;;;;;;;;;;;21.07;53.26;99878.19;4984133;28;7003;-76
2023/09/20 03:37:43;;;;;;;;;;;;;;;21.03;53.23;99869.53;4978436;28;6877;-75
2023/09/20 03:40:11;;;;;;;;;;;;;;;21.02;53.36;99879.94;4982077;28;6921;-75
2023/09/20 03:42:46;;;;;;;;;;;;;;;20.98;53.45;99873.88;5000625;28;6812;-75
2023/09/20 03:45:15;;;;;;;;;;;;;;;20.98;53.63;99880.84;4967757;28;7004;-75
2023/09/20 03:47:41;;;;;;;;;;;;;;;20.95;53.78;99879.09;4968252;28;7211;-75
2023/09/20 03:50:09;;;;;;;;;;;;;;;20.93;53.73;99886.91;5000410;28;7253;-77
2023/09/20 03:52:37;;;;;;;;;;;;;;;20.92;53.88;99882.56;4981891;28;6999;-77
2023/09/20 03:55:03;;;;;;;;;;;;;;;20.90;53.77;99876.50;4981919;28;6988;-76
2023/09/20 03:57:29;;;;;;;;;;;;;;;20.90;54.18;99871.28;4983184;28;6812;-76
2023/09/20 03:59:54;;;;;;;;;;;;;;;20.88;53.83;99861.75;4981588;28;6919;-75
2023/09/20 04:02:23;;;;;;;;;;;;;;;20.87;54.33;99860.91;4964725;28;7067;-76
2023/09/20 04:04:53;;;;;;;;;;;;;;;20.85;54.08;99870.44;4981616;28;7428;-75
2023/09/20 04:07:19;;;;;;;;;;;;;;;20.83;53.76;99863.50;4981134;28;6972;-76
2023/09/20 04:09:45;;;;;;;;;;;;;;;20.77;54.37;99861.75;4982625;28;7142;-74
2023/09/20 04:12:11;;;;;;;;;;;;;;;20.76;54.58;99860.00;4998028;28;6799;-75
2023/09/20 04:14:37;;;;;;;;;;;;;;;20.74;54.32;99851.34;4979190;28;6808;-76
2023/09/20 04:17:04;;;;;;;;;;;;;;;20.73;54.33;99849.59;4983607;28;6936;-75
2023/09/20 04:19:30;;;;;;;;;;;;;;;20.71;54.57;99849.59;4962205;28;7003;-77
2023/09/20 04:21:56;;;;;;;;;;;;;;;20.71;54.27;99854.81;4981322;28;6804;-75
2023/09/20 04:24:22;;;;;;;;;;;;;;;20.72;54.46;99853.09;4982722;28;6796;-76
2023/09/20 04:26:49;;;;;;;;;;;;;;;20.72;54.31;99845.28;4984545;28;7010;-76
2023/09/20 04:29:15;;;;;;;;;;;;;;;20.72;54.41;99845.28;4983147;28;7252;-76
2023/09/20 04:31:40;;;;;;;;;;;;;;;20.70;54.54;99832.25;4964860;28;6799;-76
2023/09/20 04:34:06;;;;;;;;;;;;;;;20.69;54.78;99835.72;4995363;28;7214;-75
2023/09/20 04:36:31;;;;;;;;;;;;;;;20.65;54.68;99837.47;4958499;28;6969;-76
2023/09/20 04:38:57;;;;;;;;;;;;;;;20.64;54.80;99832.28;4993350;28;7247;-76
2023/09/20 04:41:23;;;;;;;;;;;;;;;20.62;54.74;99840.09;4980293;28;6791;-76
2023/09/20 04:43:49;;;;;;;;;;;;;;;20.60;54.84;99836.63;4959903;28;7946;-76
2023/09/20 04:46:15;;;;;;;;;;;;;;;20.58;54.83;99840.97;4976863;28;6808;-75
2023/09/20 04:48:41;;;;;;;;;;;;;;;20.56;54.83;99836.63;4979704;28;6783;-76
2023/09/20 04:51:10;;;;;;;;;;;;;;;20.53;54.86;99840.09;4919632;28;1293404;-75
2023/09/20 04:53:35;;;;;;;;;;;;;;;20.50;54.65;99842.72;4980400;28;7342;-77
2023/09/20 04:56:02;;;;;;;;;;;;;;;20.47;55.23;99837.50;4978937;28;7099;-75
2023/09/20 04:58:27;;;;;;;;;;;;;;;20.46;55.11;99827.97;4960637;28;7142;-76
2023/09/20 05:00:53;;;;;;;;;;;;;;;20.44;55.34;99834.91;4961625;28;7158;-76
2023/09/20 05:03:19;;;;;;;;;;;;;;;20.42;55.29;99831.47;4995821;28;7012;-77
2023/09/20 05:05:50;;;;;;;;;;;;;;;20.39;55.51;99833.19;4982457;28;7083;-76
2023/09/20 05:08:16;;;;;;;;;;;;;;;20.35;55.34;99826.25;4967281;28;6994;-76
2023/09/20 05:10:43;;;;;;;;;;;;;;;20.33;55.68;99837.53;4984381;28;6788;-76
2023/09/20 05:13:09;;;;;;;;;;;;;;;20.29;55.55;99826.28;4982710;28;7243;-76
2023/09/20 05:15:36;;;;;;;;;;;;;;;20.27;55.57;99828.00;4983518;28;6796;-77
2023/09/20 05:18:04;;;;;;;;;;;;;;;20.24;55.76;99822.81;4965640;28;7263;-77
2023/09/20 05:20:31;;;;;;;;;;;;;;;20.21;55.93;99822.81;4984792;28;6815;-76
2023/09/20 05:22:58;;;;;;;;;;;;;;;20.19;56.10;99824.56;4984330;28;7221;-77
2023/09/20 05:25:23;;;;;;;;;;;;;;;20.18;55.93;99822.78;4967018;28;8135;-74
2023/09/20 05:27:49;;;;;;;;;;;;;;;20.16;55.94;99821.94;4979220;28;6858;-76
2023/09/20 05:30:16;;;;;;;;;;;;;;;20.15;55.79;99822.81;4982271;28;6956;-76
2023/09/20 05:32:43;;;;;;;;;;;;;;;20.16;56.49;99824.53;4995083;28;6796;-77
2023/09/20 05:35:11;;;;;;;;;;;;;;;20.17;56.25;99824.53;4961390;28;7322;-76
2023/09/20 05:37:38;;;;;;;;;;;;;;;20.18;56.40;99823.69;4979383;28;6987;-76
2023/09/20 05:40:17;;;;;;;;;;;;;;;20.20;56.43;99823.69;4950581;28;7003;-76
2023/09/20 05:42:46;;;;;;;;;;;;;;;20.18;56.29;99818.47;4978595;28;6811;-77
2023/09/20 05:45:15;;;;;;;;;;;;;;;20.21;56.38;99820.22;4967320;28;6808;-77
2023/09/20 05:47:41;;;;;;;;;;;;;;;20.22;56.10;99824.53;4966375;28;7086;-76
2023/09/20 05:50:10;;;;;;;;;;;;;;;20.23;56.36;99818.47;4959756;28;7453;-77
2023/09/20 05:52:37;;;;;;;;;;;;;;;20.26;56.53;99826.25;4974406;28;7050;-76
2023/09/20 05:55:03;;;;;;;;;;;;;;;20.28;56.24;99814.13;4958717;28;7005;-78
2023/09/20 05:57:31;;;;;;;;;;;;;;;20.31;56.52;99813.25;4961528;28;8409;-76
2023/09/20 05:59:56;;;;;;;;;;;;;;;20.32;57.00;99810.66;4966678;28;7051;-77
2023/09/20 06:02:22;;;;;;;;;;;;;;;20.35;56.59;99808.03;4982806;28;7146;-77
2023/09/20 06:04:47;;;;;;;;;;;;;;;20.37;56.51;99811.50;4979225;28;6839;-78
2023/09/20 06:07:14;;;;;;;;;;;;;;;20.39;56.60;99804.56;4982105;28;6772;-76
2023/09/20 06:09:39;;;;;;;;;;;;;;;20.43;56.71;99804.56;4997408;28;6887;-76
2023/09/20 06:12:05;;;;;;;;;;;;;;;20.45;56.67;99795.88;4982790;28;8623;-76
2023/09/20 06:14:30;;;;;;;;;;;;;;;20.50;56.14;99793.28;4977903;28;6967;-78
2023/09/20 06:17:00;;;;;;;;;;;;;;;20.53;56.80;99801.94;4980174;28;6863;-77
2023/09/20 06:19:28;;;;;;;;;;;;;;;20.59;56.63;99793.25;4964004;28;7058;-78
2023/09/20 06:21:54;;;;;;;;;;;;;;;20.65;56.19;99803.63;4981174;28;6993;-77
2023/09/20 06:24:19;;;;;;;;;;;;;;;20.70;56.48;99794.94;4980420;28;7150;-77
2023/09/20 06:26:45;;;;;;;;;;;;;;;20.75;56.38;99798.38;4983955;28;6783;-77
2023/09/20 06:29:10;;;;;;;;;;;;;;;20.79;56.35;99798.38;4977739;28;6784;-76
2023/09/20 06:31:40;;;;;;;;;;;;;;;20.84;56.38;99800.97;4976249;28;7225;-77
2023/09/20 06:34:06;;;;;;;;;;;;;;;20.89;56.35;99795.75;4980200;28;6820;-76
2023/09/20 06:36:31;;;;;;;;;;;;;;;20.95;56.08;99798.34;4963679;28;7130;-76
2023/09/20 06:38:57;;;;;;;;;;;;;;;20.99;56.29;99805.25;4967907;28;7265;-75
2023/09/20 06:41:23;;;;;;;;;;;;;;;21.04;56.17;99800.91;4979415;28;7381;-76
2023/09/20 06:43:49;;;;;;;;;;;;;;;21.10;56.18;99805.22;4981090;28;9827;-76
2023/09/20 06:46:14;;;;;;;;;;;;;;;21.15;55.76;99798.28;4980766;28;7359;-76
2023/09/20 06:48:40;;;;;;;;;;;;;;;21.21;55.80;99803.44;4982018;28;6943;-77
2023/09/20 06:51:06;;;;;;;;;;;;;;;21.26;56.20;99805.16;4956697;28;6955;-77
2023/09/20 06:53:31;;;;;;;;;;;;;;;21.30;55.85;99799.91;4980534;28;6780;-77
2023/09/20 06:55:59;;;;;;;;;;;;;;;21.35;55.28;99805.09;4982999;28;7153;-76
2023/09/20 06:58:25;;;;;;;;;;;;;;;21.38;55.37;99810.28;4982348;28;7227;-76
2023/09/20 07:00:52;;;;;;;;;;;;;;;21.42;55.57;99801.56;4995905;28;6962;-76
2023/09/20 07:03:22;;;;;;;;;;;;;;;21.46;55.04;99802.41;4981769;28;7043;-76
2023/09/20 07:05:48;;;;;;;;;;;;;;;21.46;55.23;99792.88;4994205;28;6899;-76
2023/09/20 07:08:14;;;;;;;;;;;;;;;21.49;54.96;99792.00;4964896;28;7238;-77
2023/09/20 07:10:41;;;;;;;;;;;;;;;21.49;55.04;99795.44;4980777;28;7091;-76
2023/09/20 07:13:09;;;;;;;;;;;;;;;21.49;54.96;99784.16;4980350;28;7193;-78
2023/09/20 07:15:35;;;;;;;;;;;;;;;21.51;54.92;99790.22;4996158;28;7014;-76
2023/09/20 07:18:11;;;;;;;;;;;;;;;21.53;54.86;99787.59;4959445;28;7051;-77
2023/09/20 07:20:36;;;;;;;;;;;;;;;21.56;54.94;99778.00;4983635;28;7013;-77
2023/09/20 07:23:03;;;;;;;;;;;;;;;21.61;54.71;99783.19;4980838;28;6815;-76
2023/09/20 07:25:28;;;;;;;;;;;;;;;21.66;55.02;99786.63;4977007;28;6808;-76
2023/09/20 07:27:55;;;;;;;;;;;;;;;21.74;54.69;99787.50;4965312;28;6977;-76
2023/09/20 07:30:22;;;;;;;;;;;;;;;21.81;54.48;99785.69;4979231;28;6864;-77
2023/09/20 07:32:51;;;;;;;;;;;;;;;21.91;54.40;99795.16;4982318;28;6987;-77
2023/09/20 07:35:26;;;;;;;;;;;;;;;21.97;54.13;99793.38;4966136;28;7533;-76
2023/09/20 07:37:58;;;;;;;;;;;;;;;22.04;54.21;99790.72;4977557;28;6819;-77
2023/09/20 07:40:31;;;;;;;;;;;;;;;22.10;54.11;99802.81;4982199;28;6820;-76
2023/09/20 07:43:04;;;;;;;;;;;;;;;22.18;54.11;99805.34;4955505;28;7285;-76
2023/09/20 07:45:38;;;;;;;;;;;;;;;22.26;54.10;99806.16;4984054;28;6992;-77
2023/09/20 07:48:21;;;;;;;;;;;;;;;22.33;53.92;99799.13;4971186;28;7083;-76
2023/09/20 07:50:50;;;;;;;;;;;;;;;22.42;53.59;99800.78;4985427;28;7152;-77
2023/09/20 07:53:18;;;;;;;;;;;;;;;22.50;53.57;99798.97;4982028;28;6972;-76
2023/09/20 07:55:48;;;;;;;;;;;;;;;22.59;53.30;99800.63;4985718;28;6875;-78
2023/09/20 07:58:15;;;;;;;;;;;;;;;22.68;53.28;99802.25;4986540;28;7143;-77
2023/09/20 08:00:45;;;;;;;;;;;;;;;22.74;52.87;99804.81;4983600;28;6813;-77
2023/09/20 08:03:11;;;;;;;;;;;;;;;22.82;52.99;99805.59;4985199;28;6803;-77
2023/09/20 08:05:37;;;;;;;;;;;;;;;22.94;52.80;99801.09;4983070;28;6982;-76
2023/09/20 08:08:06;;;;;;;;;;;;;;;23.01;52.76;99802.75;4967955;28;6850;-77
2023/09/20 08:10:33;;;;;;;;;;;;;;;23.12;52.43;99803.47;4985698;28;7543;-77
2023/09/20 08:12:59;;;;;;;;;;;;;;;23.25;52.69;99811.13;4982369;28;6803;-78
2023/09/20 08:15:27;;;;;;;;;;;;;;;23.37;52.26;99811.00;4985714;28;7281;-77
2023/09/20 08:20:39;;;;;;;;;;;;;;;23.53;51.67;99808.16;4981741;28;6816;-78
2023/09/20 09:01:38;;;;;;;;;;;;;;;25.55;48.88;99798.28;4993058;28;6800;-77
2023/09/20 09:04:08;;;;;;;;;;;;;;;25.64;48.30;99801.53;4986000;28;7725;-77
2023/09/20 09:06:34;;;;;;;;;;;;;;;25.76;48.20;99802.13;4967733;28;6995;-76
2023/09/20 09:09:01;;;;;;;;;;;;;;;25.89;47.45;99797.44;4984142;28;7257;-77
2023/09/20 09:11:28;;;;;;;;;;;;;;;26.00;47.64;99792.78;4984376;28;8600;-76
2023/09/20 09:13:58;;;;;;;;;;;;;;;26.13;46.71;99797.75;4983751;28;6808;-77
2023/09/20 09:16:33;;;;;;;;;;;;;;;26.19;46.38;99793.22;4962405;28;6847;-78
2023/09/20 09:19:02;;;;;;;;;;;;;;;26.24;46.73;99800.09;4998995;28;6792;-77
2023/09/20 09:21:28;;;;;;;;;;;;;;;26.25;46.28;99799.19;4984216;28;6807;-77
2023/09/20 09:23:53;;;;;;;;;;;;;;;26.28;46.01;99797.34;4963539;28;7177;-76
2023/09/20 09:26:19;;;;;;;;;;;;;;;26.33;45.96;99800.72;4983068;28;7046;-77
2023/09/20 09:28:45;;;;;;;;;;;;;;;26.40;45.72;99814.53;4962230;28;6970;-76
2023/09/20 09:31:13;;;;;;;;;;;;;;;26.43;44.47;99814.44;4978988;28;7118;-77
2023/09/20 09:33:39;;;;;;;;;;;;;;;26.43;44.93;99796.06;4999543;28;7040;-77
2023/09/20 09:36:05;;;;;;;;;;;;;;;26.44;43.93;99816.16;4983852;28;7239;-77
2023/09/20 09:38:33;;;;;;;;;;;;;;;26.42;44.32;99807.47;4981797;28;7207;-77
2023/09/20 09:40:59;;;;;;;;;;;;;;;26.43;44.15;99806.56;4982623;28;7778;-76
2023/09/20 09:43:32;;;;;;;;;;;;;;;26.45;44.14;99802.13;4982301;28;7397;-77
2023/09/20 09:46:09;;;;;;;;;;;;;;;26.51;44.50;99810.75;4991525;28;7874;-74
2023/09/20 09:48:39;;;;;;;;;;;;;;;26.54;44.06;99811.53;4997486;28;7094;-74
2023/09/20 09:51:09;;;;;;;;;;;;;;;26.59;43.17;99819.28;4980052;28;6967;-75
2023/09/20 09:53:39;;;;;;;;;;;;;;;26.60;43.19;99806.09;4978487;28;6803;-74
2023/09/20 09:56:05;;;;;;;;;;;;;;;26.64;43.81;99801.63;4996785;28;6803;-74
2023/09/20 09:58:31;;;;;;;;;;;;;;;26.71;43.81;99797.91;4981564;28;6823;-75
2023/09/20 10:00:57;;;;;;;;;;;;;;;26.80;43.42;99807.31;4959981;28;6997;-74
2023/09/20 10:03:27;;;;;;;;;;;;;;;26.87;43.48;99808.84;4979478;28;6994;-74
2023/09/20 10:06:00;;;;;;;;;;;;;;;26.93;43.42;99802.56;4980893;28;7374;-74
2023/09/20 10:08:29;;;;;;;;;;;;;;;27.02;43.59;99797.03;4976985;28;7038;-74
2023/09/20 10:10:59;;;;;;;;;;;;;;;27.13;42.92;99796.72;4985975;28;6796;-75
2023/09/20 10:13:29;;;;;;;;;;;;;;;27.20;42.87;99796.56;4980761;28;6975;-75
2023/09/20 10:15:57;;;;;;;;;;;;;;;27.17;42.29;99793.09;4983032;28;7007;-75
2023/09/20 10:18:24;;;;;;;;;;;;;;;27.20;41.82;99789.50;4984490;28;7276;-74
2023/09/20 10:20:58;;;;;;;;;;;;;;;27.17;41.66;99787.81;4976220;28;7092;-72
2023/09/20 10:23:24;;;;;;;;;;;;;;;27.09;41.36;99791.59;4976165;28;7257;-72
2023/09/20 10:25:50;;;;;;;;;;;;;;;27.08;41.45;99789.88;4978532;28;7177;-72
2023/09/20 10:28:17;;;;;;;;;;;;;;;27.08;42.01;99784.63;4965421;28;7028;-73
2023/09/20 10:31:02;;;;;;;;;;;;;;;27.10;41.92;99782.81;4964785;28;8888;-72
2023/09/20 10:33:46;;;;;;;;;;;;;;;27.11;41.68;99789.78;4978576;28;7083;-74
2023/09/20 10:36:22;;;;;;;;;;;;;;;27.06;41.23;99794.34;4981231;28;7012;-74
2023/09/20 10:38:48;;;;;;;;;;;;;;;27.02;41.55;99781.25;4979053;28;7289;-74
2023/09/20 10:41:16;;;;;;;;;;;;;;;27.08;41.81;99790.72;4980642;28;7264;-74
2023/09/20 10:43:46;;;;;;;;;;;;;;;27.22;41.99;99787.69;4980258;28;8525;-74
2023/09/20 10:46:19;;;;;;;;;;;;;;;27.38;42.17;99789.84;4978657;28;9012;-75
2023/09/20 10:48:50;;;;;;;;;;;;;;;27.38;41.49;99777.56;4981033;28;6796;-72
2023/09/20 10:51:38;;;;;;;;;;;;;;;27.30;41.22;99790.94;4979654;28;7006;-73
2023/09/20 10:54:20;;;;;;;;;;;;;;;27.18;41.17;99780.81;4980630;28;7014;-73
2023/09/20 10:56:52;;;;;;;;;;;;;;;27.07;40.92;99777.66;4963165;28;7261;-73
2023/09/20 10:59:21;;;;;;;;;;;;;;;26.97;40.58;99774.44;4977018;28;6930;-73
2023/09/20 11:01:58;;;;;;;;;;;;;;;26.93;41.06;99781.53;4952421;28;7238;-73
2023/09/20 11:04:24;;;;;;;;;;;;;;;26.95;40.80;99778.88;4997739;28;6819;-73
2023/09/20 11:06:52;;;;;;;;;;;;;;;26.97;40.40;99771.78;4982732;28;6971;-72
2023/09/20 11:09:20;;;;;;;;;;;;;;;27.07;40.69;99767.13;4981399;28;7260;-73
2023/09/20 11:11:47;;;;;;;;;;;;;;;27.31;41.32;99766.34;4960568;28;7396;-73
2023/09/20 11:14:13;;;;;;;;;;;;;;;27.75;41.31;99756.22;4977233;28;7023;-73
2023/09/20 11:16:43;;;;;;;;;;;;;;;28.29;40.34;99749.09;4967078;28;7275;-73
2023/09/20 11:19:10;;;;;;;;;;;;;;;28.79;40.14;99749.94;4981570;28;6972;-72
2023/09/20 11:21:36;;;;;;;;;;;;;;;29.34;39.67;99743.41;4980874;28;7188;-73
2023/09/20 11:24:02;;;;;;;;;;;;;;;29.82;39.27;99740.59;4984587;28;6923;-73
2023/09/20 11:26:28;;;;;;;;;;;;;;;29.96;38.07;99738.22;4981543;28;6868;-73
2023/09/20 11:28:54;;;;;;;;;;;;;;;29.95;37.19;99728.59;4986741;28;7239;-73
2023/09/20 11:31:27;;;;;;;;;;;;;;;30.11;37.69;99726.16;4951346;28;7202;-72
2023/09/20 11:34:00;;;;;;;;;;;;;;;30.62;37.44;99734.44;4982418;28;6800;-72
2023/09/20 11:36:26;;;;;;;;;;;;;;;31.14;37.27;99724.97;4996361;28;6975;-73
2023/09/20 11:38:53;;;;;;;;;;;;;;;31.41;35.98;99715.78;4996313;28;6804;-73
2023/09/20 11:41:22;;;;;;;;;;;;;;;31.44;35.35;99721.78;4982297;28;7256;-73
2023/09/20 11:43:47;;;;;;;;;;;;;;;31.40;35.36;99722.00;4979556;28;6804;-73
2023/09/20 11:46:13;;;;;;;;;;;;;;;31.36;35.38;99712.50;4964788;28;7444;-73
2023/09/20 11:48:38;;;;;;;;;;;;;;;31.40;35.23;99701.69;4980046;28;6968;-73
2023/09/20 11:51:07;;;;;;;;;;;;;;;31.70;35.57;99706.34;4984299;28;7194;-73
2023/09/20 11:53:32;;;;;;;;;;;;;;;32.08;34.19;99693.88;4983645;28;7783;-73
2023/09/20 11:56:03;;;;;;;;;;;;;;;32.14;33.86;99701.47;4983825;28;6815;-73
2023/09/20 11:58:33;;;;;;;;;;;;;;;32.03;33.64;99698.53;4967050;28;6989;-73
2023/09/20 12:01:00;;;;;;;;;;;;;;;31.93;33.76;99690.25;4998711;28;6816;-73
2023/09/20 12:03:27;;;;;;;;;;;;;;;31.69;33.38;99687.88;4981119;28;6981;-73
2023/09/20 12:05:53;;;;;;;;;;;;;;;31.38;33.41;99685.00;4966320;28;7188;-73
2023/09/20 12:08:19;;;;;;;;;;;;;;;31.04;33.83;99686.69;4965128;28;6840;-73
2023/09/20 12:10:44;;;;;;;;;;;;;;;30.79;34.28;99692.31;4980471;28;6844;-73
2023/09/20 12:13:10;;;;;;;;;;;;;;;30.58;34.23;99687.91;5001519;28;7069;-73
2023/09/20 12:15:40;;;;;;;;;;;;;;;30.45;34.77;99676.22;4982117;28;6795;-73
2023/09/20 12:18:07;;;;;;;;;;;;;;;30.31;34.94;99682.97;4986447;28;7159;-73
2023/09/20 12:20:38;;;;;;;;;;;;;;;30.19;35.00;99679.13;4970366;28;6989;-73
2023/09/20 12:23:05;;;;;;;;;;;;;;;30.02;35.55;99671.91;5003720;28;6919;-73
2023/09/20 12:25:30;;;;;;;;;;;;;;;29.81;35.83;99660.53;4985124;28;6799;-73
2023/09/20 12:27:56;;;;;;;;;;;;;;;29.63;35.76;99656.91;4987889;28;6791;-73
2023/09/20 12:30:26;;;;;;;;;;;;;;;29.43;35.40;99655.94;4980065;28;6788;-73
2023/09/20 12:32:51;;;;;;;;;;;;;;;29.22;35.44;99666.47;4963715;28;7281;-74
2023/09/20 12:35:17;;;;;;;;;;;;;;;29.03;35.86;99654.97;4978235;28;7279;-74
2023/09/20 12:37:43;;;;;;;;;;;;;;;28.86;35.71;99658.31;4980193;28;6858;-73
2023/09/20 12:40:09;;;;;;;;;;;;;;;28.78;36.67;99661.19;4980387;28;7001;-74
2023/09/20 12:42:38;;;;;;;;;;;;;;;28.75;36.50;99651.66;4984318;28;6834;-74
2023/09/20 12:45:08;;;;;;;;;;;;;;;28.76;36.15;99649.84;4982751;28;6857;-73
2023/09/20 12:47:35;;;;;;;;;;;;;;;28.80;36.35;99643.56;4979847;28;7330;-74
2023/09/20 12:50:01;;;;;;;;;;;;;;;28.80;35.36;99641.75;4996374;28;7075;-74
2023/09/20 12:52:27;;;;;;;;;;;;;;;28.71;35.54;99643.94;4962146;28;7170;-74
2023/09/20 12:54:53;;;;;;;;;;;;;;;28.58;36.22;99646.19;4982391;28;6832;-74
2023/09/20 12:57:18;;;;;;;;;;;;;;;28.45;35.98;99649.28;4998989;28;7089;-74
2023/09/20 12:59:44;;;;;;;;;;;;;;;28.40;36.91;99656.50;4994255;28;6832;-74
2023/09/20 13:02:10;;;;;;;;;;;;;;;28.45;37.22;99648.44;4959088;28;6986;-74
2023/09/20 13:04:35;;;;;;;;;;;;;;;28.54;36.81;99648.06;4971246;28;6854;-74
2023/09/20 13:07:01;;;;;;;;;;;;;;;28.60;36.30;99637.31;4977838;28;6848;-74
2023/09/20 13:09:27;;;;;;;;;;;;;;;28.65;36.29;99627.41;4979803;28;7029;-74
2023/09/20 13:11:53;;;;;;;;;;;;;;;28.72;36.75;99629.81;4965616;28;6962;-74
2023/09/20 13:14:19;;;;;;;;;;;;;;;28.83;36.72;99612.69;4958843;28;7010;-74
2023/09/20 13:16:49;;;;;;;;;;;;;;;29.17;36.22;99609.56;4980967;28;6856;-74
2023/09/20 13:19:16;;;;;;;;;;;;;;;29.52;35.92;99610.72;4966714;28;7225;-74
2023/09/20 13:21:41;;;;;;;;;;;;;;;29.86;36.08;99608.34;4980670;28;6792;-74
2023/09/20 13:24:11;;;;;;;;;;;;;;;30.18;35.09;99613.13;4980035;28;6811;-74
2023/09/20 13:26:40;;;;;;;;;;;;;;;30.48;35.10;99607.31;4980254;28;6799;-74
2023/09/20 13:29:06;;;;;;;;;;;;;;;30.74;34.33;99589.38;4983918;28;7211;-74
2023/09/20 13:31:31;;;;;;;;;;;;;;;30.98;33.80;99587.31;4982698;28;6772;-74
2023/09/20 13:33:58;;;;;;;;;;;;;;;31.13;33.34;99584.81;4982382;28;6972;-74
2023/09/20 13:36:25;;;;;;;;;;;;;;;31.03;33.51;99584.44;4977422;28;7004;-74
2023/09/20 13:38:50;;;;;;;;;;;;;;;30.74;34.09;99573.53;4978502;28;6812;-74
2023/09/20 13:41:16;;;;;;;;;;;;;;;30.35;33.99;99588.56;4979361;28;6780;-74